Time,TemperatureF,DewpointF,PressureIn,WindDirection,WindDirectionDegrees,WindSpeedMPH,WindSpeedGustMPH,Humidity,HourlyPrecipIn,Conditions,Clouds,dailyrainin,SolarRadiationWatts/m^2,SoftwareType,DateUTC
2013-03-23 00:00:00,23.1,14.5,30.09,NW,325,0.0,0.0,69,0.00,,CLR,0.00,0.00,VWS V14.01,2013-03-23 05:00:00,
2013-03-23 00:05:00,22.9,14.6,30.09,NW,325,0.0,1.0,70,0.00,,CLR,0.00,0.00,VWS V14.01,2013-03-23 05:05:00,
2013-03-23 00:10:00,22.6,14.3,30.10,NW,325,0.0,1.0,70,0.00,,CLR,0.00,0.00,VWS V14.01,2013-03-23 05:10:00,
2013-03-23 00:15:00,22.5,14.9,30.10,NW,325,0.0,1.0,72,0.00,,CLR,0.00,0.00,VWS V14.01,2013-03-23 05:15:00,
2013-03-23 00:20:00,22.2,14.2,30.10,NW,325,0.0,1.0,71,0.00,,CLR,0.00,0.00,VWS V14.01,2013-03-23 05:20:00,
2013-03-23 00:25:00,22.1,14.8,30.10,NW,325,0.0,1.0,73,0.00,,CLR,0.00,0.00,VWS V14.01,2013-03-23 05:25:00,
2013-03-23 00:30:00,21.8,14.2,30.10,NW,325,0.0,1.0,72,0.00,,CLR,0.00,0.00,VWS V14.01,2013-03-23 05:30:00,
2013-03-23 00:35:00,21.6,14.3,30.10,NW,325,0.0,1.0,73,0.00,,CLR,0.00,0.00,VWS V14.01,2013-03-23 05:35:00,
2013-03-23 00:40:00,21.4,14.1,30.10,NW,325,0.0,1.0,73,0.00,,CLR,0.00,0.00,VWS V14.01,2013-03-23 05:40:00,
2013-03-23 00:45:00,21.3,14.6,30.10,NW,325,0.0,1.0,75,0.00,,CLR,0.00,0.00,VWS V14.01,2013-03-23 05:45:00,
2013-03-23 00:51:00,21.3,14.9,30.10,NW,325,0.0,1.0,76,0.00,,CLR,0.00,0.00,VWS V14.01,2013-03-23 05:51:00,
2013-03-23 00:56:00,21.4,15.0,30.10,NW,325,0.0,1.0,76,0.00,,CLR,0.00,0.00,VWS V14.01,2013-03-23 05:56:00,
2013-03-23 01:01:00,21.3,14.9,30.10,NW,325,0.0,0.0,76,0.00,,CLR,0.00,0.00,VWS V14.01,2013-03-23 06:01:00,
2013-03-23 01:06:00,21.3,14.9,30.10,NW,325,0.0,0.0,76,0.00,,CLR,0.00,0.00,VWS V14.01,2013-03-23 06:06:00,
2013-03-23 01:11:00,21.7,15.6,30.10,NW,325,0.0,1.0,77,0.00,,CLR,0.00,0.00,VWS V14.01,2013-03-23 06:11:00,
2013-03-23 01:16:00,21.9,15.8,30.10,NW,325,0.0,1.0,77,0.00,,CLR,0.00,0.00,VWS V14.01,2013-03-23 06:16:00,
2013-03-23 01:21:00,21.9,15.5,30.10,NW,325,0.0,1.0,76,0.00,,CLR,0.00,0.00,VWS V14.01,2013-03-23 06:21:00,
2013-03-23 01:26:00,21.9,15.5,30.10,NW,325,0.0,1.0,76,0.00,,CLR,0.00,0.00,VWS V14.01,2013-03-23 06:26:00,
2013-03-23 01:31:00,21.7,14.7,30.10,NW,325,0.0,1.0,74,0.00,,CLR,0.00,0.00,VWS V14.01,2013-03-23 06:31:00,
2013-03-23 01:36:00,20.9,14.2,30.10,NW,325,0.0,1.0,75,0.00,,CLR,0.00,0.00,VWS V14.01,2013-03-23 06:36:00,
2013-03-23 01:41:00,20.6,14.6,30.10,NW,325,0.0,1.0,77,0.00,,CLR,0.00,0.00,VWS V14.01,2013-03-23 06:41:00,
2013-03-23 01:46:00,20.4,14.6,30.10,NW,325,0.0,1.0,78,0.00,,CLR,0.00,0.00,VWS V14.01,2013-03-23 06:46:00,
2013-03-23 01:51:00,20.5,15.0,30.10,NW,325,0.0,1.0,79,0.00,,CLR,0.00,0.00,VWS V14.01,2013-03-23 06:51:00,
2013-03-23 01:56:00,20.3,14.0,30.10,NW,325,0.0,1.0,76,0.00,,CLR,0.00,0.00,VWS V14.01,2013-03-23 06:56:00,
2013-03-23 02:01:00,19.8,13.8,30.10,NW,325,0.0,0.0,77,0.00,,CLR,0.00,0.00,VWS V14.01,2013-03-23 07:01:00,
2013-03-23 02:06:00,19.6,14.2,30.10,NW,325,0.0,0.0,79,0.00,,CLR,0.00,0.00,VWS V14.01,2013-03-23 07:06:00,
2013-03-23 02:11:00,19.3,13.9,30.10,NW,325,0.0,0.0,79,0.00,,CLR,0.00,0.00,VWS V14.01,2013-03-23 07:11:00,
2013-03-23 02:16:00,19.0,13.6,30.10,NW,325,0.0,0.0,79,0.00,,CLR,0.00,0.00,VWS V14.01,2013-03-23 07:16:00,
2013-03-23 02:22:00,18.7,13.6,30.10,NW,325,0.0,0.0,80,0.00,,CLR,0.00,0.00,VWS V14.01,2013-03-23 07:22:00,
2013-03-23 02:27:00,18.5,13.4,30.10,NW,325,0.0,0.0,80,0.00,,CLR,0.00,0.00,VWS V14.01,2013-03-23 07:27:00,
2013-03-23 02:32:00,18.5,13.6,30.10,NW,325,0.0,0.0,81,0.00,,CLR,0.00,0.00,VWS V14.01,2013-03-23 07:32:00,
2013-03-23 02:37:00,18.4,13.6,30.10,NW,325,0.0,0.0,81,0.00,,CLR,0.00,0.00,VWS V14.01,2013-03-23 07:37:00,
2013-03-23 02:42:00,18.2,13.4,30.10,NW,325,0.0,0.0,81,0.00,,CLR,0.00,0.00,VWS V14.01,2013-03-23 07:42:00,
2013-03-23 02:47:00,18.1,13.3,30.09,NW,325,0.0,0.0,81,0.00,,CLR,0.00,0.00,VWS V14.01,2013-03-23 07:47:00,
2013-03-23 02:52:00,18.1,13.5,30.09,NW,325,0.0,0.0,82,0.00,,CLR,0.00,0.00,VWS V14.01,2013-03-23 07:52:00,
2013-03-23 02:57:00,18.2,13.6,30.09,NW,325,0.0,0.0,82,0.00,,CLR,0.00,0.00,VWS V14.01,2013-03-23 07:57:00,
2013-03-23 03:02:00,18.3,14.0,30.09,NW,325,0.0,0.0,83,0.00,,CLR,0.00,0.00,VWS V14.01,2013-03-23 08:02:00,
2013-03-23 03:07:00,18.3,14.0,30.09,NW,325,0.0,0.0,83,0.00,,CLR,0.00,0.00,VWS V14.01,2013-03-23 08:07:00,
2013-03-23 03:12:00,18.3,14.0,30.09,NW,325,0.0,0.0,83,0.00,,CLR,0.00,0.00,VWS V14.01,2013-03-23 08:12:00,
2013-03-23 03:17:00,18.2,13.9,30.09,NW,325,0.0,0.0,83,0.00,,CLR,0.00,0.00,VWS V14.01,2013-03-23 08:17:00,
2013-03-23 03:22:00,18.0,13.7,30.09,NW,325,0.0,0.0,83,0.00,,CLR,0.00,0.00,VWS V14.01,2013-03-23 08:22:00,
2013-03-23 03:27:00,17.9,13.6,30.08,NW,325,0.0,0.0,83,0.00,,CLR,0.00,0.00,VWS V14.01,2013-03-23 08:27:00,
2013-03-23 03:32:00,17.3,12.5,30.09,NW,325,0.0,0.0,81,0.00,,CLR,0.00,0.00,VWS V14.01,2013-03-23 08:32:00,
2013-03-23 03:37:00,16.6,11.8,30.09,NW,325,0.0,0.0,81,0.00,,CLR,0.00,0.00,VWS V14.01,2013-03-23 08:37:00,
2013-03-23 03:42:00,16.3,12.1,30.08,NW,325,0.0,0.0,83,0.00,,CLR,0.00,0.00,VWS V14.01,2013-03-23 08:42:00,
2013-03-23 03:47:00,16.4,12.4,30.08,NW,325,0.0,0.0,84,0.00,,CLR,0.00,0.00,VWS V14.01,2013-03-23 08:47:00,
2013-03-23 03:52:00,16.6,12.9,30.08,NW,325,0.0,0.0,85,0.00,,CLR,0.00,0.00,VWS V14.01,2013-03-23 08:52:00,
2013-03-23 03:57:00,17.1,13.6,30.08,NW,325,0.0,0.0,86,0.00,,CLR,0.00,0.00,VWS V14.01,2013-03-23 08:57:00,
2013-03-23 04:02:00,18.0,15.1,30.08,NW,325,0.0,1.0,88,0.00,,CLR,0.00,0.00,VWS V14.01,2013-03-23 09:02:00,
2013-03-23 04:07:00,18.8,15.8,30.08,NW,325,1.0,1.0,88,0.00,,CLR,0.00,0.00,VWS V14.01,2013-03-23 09:07:00,
2013-03-23 04:12:00,19.4,16.2,30.07,NW,325,0.0,1.0,87,0.00,,CLR,0.00,0.00,VWS V14.01,2013-03-23 09:12:00,
2013-03-23 04:17:00,19.9,16.7,30.07,NW,325,0.0,1.0,87,0.00,,CLR,0.00,0.00,VWS V14.01,2013-03-23 09:17:00,
2013-03-23 04:22:00,20.2,17.0,30.07,NW,325,1.0,1.0,87,0.00,,CLR,0.00,0.00,VWS V14.01,2013-03-23 09:22:00,
2013-03-23 04:27:00,20.5,17.0,30.07,NW,325,2.0,2.0,86,0.00,,CLR,0.00,0.00,VWS V14.01,2013-03-23 09:27:00,
2013-03-23 04:32:00,20.6,17.1,30.07,NW,325,0.0,1.0,86,0.00,,CLR,0.00,0.00,VWS V14.01,2013-03-23 09:32:00,
2013-03-23 04:37:00,20.7,17.2,30.07,NW,325,0.0,1.0,86,0.00,,CLR,0.00,0.00,VWS V14.01,2013-03-23 09:37:00,
2013-03-23 04:42:00,20.7,17.2,30.07,NW,325,1.0,2.0,86,0.00,,CLR,0.00,0.00,VWS V14.01,2013-03-23 09:42:00,
2013-03-23 04:47:00,20.6,17.1,30.08,NW,325,0.0,2.0,86,0.00,,CLR,0.00,0.00,VWS V14.01,2013-03-23 09:47:00,
2013-03-23 04:52:00,20.6,17.1,30.08,NW,325,0.0,2.0,86,0.00,,CLR,0.00,0.00,VWS V14.01,2013-03-23 09:52:00,
2013-03-23 04:57:00,20.4,16.9,30.08,NW,325,0.0,2.0,86,0.00,,CLR,0.00,0.00,VWS V14.01,2013-03-23 09:57:00,
2013-03-23 05:02:00,20.3,16.8,30.09,NW,325,0.0,1.0,86,0.00,,CLR,0.00,0.00,VWS V14.01,2013-03-23 10:02:00,
2013-03-23 05:07:00,20.2,16.7,30.09,NW,325,0.0,1.0,86,0.00,,CLR,0.00,0.00,VWS V14.01,2013-03-23 10:07:00,
2013-03-23 05:12:00,20.1,16.6,30.09,NW,325,0.0,1.0,86,0.00,,CLR,0.00,0.00,VWS V14.01,2013-03-23 10:12:00,
2013-03-23 05:17:00,20.0,16.5,30.09,NW,325,0.0,1.0,86,0.00,,CLR,0.00,0.00,VWS V14.01,2013-03-23 10:17:00,
2013-03-23 05:22:00,19.8,16.3,30.10,NW,325,0.0,1.0,86,0.00,,CLR,0.00,0.00,VWS V14.01,2013-03-23 10:22:00,
2013-03-23 05:27:00,19.6,16.1,30.11,NW,325,0.0,1.0,86,0.00,,CLR,0.00,0.00,VWS V14.01,2013-03-23 10:27:00,
2013-03-23 05:32:00,19.4,15.9,30.11,NW,325,0.0,0.0,86,0.00,,CLR,0.00,0.00,VWS V14.01,2013-03-23 10:32:00,
2013-03-23 05:37:00,19.4,16.2,30.11,NW,325,0.0,0.0,87,0.00,,CLR,0.00,0.00,VWS V14.01,2013-03-23 10:37:00,
2013-03-23 05:42:00,19.3,16.1,30.12,NW,325,0.0,1.0,87,0.00,,CLR,0.00,0.00,VWS V14.01,2013-03-23 10:42:00,
2013-03-23 05:47:00,19.1,15.9,30.12,NW,325,0.0,1.0,87,0.00,,CLR,0.00,0.00,VWS V14.01,2013-03-23 10:47:00,
2013-03-23 05:52:00,19.1,15.9,30.12,NW,325,0.0,2.0,87,0.00,,CLR,0.00,0.00,VWS V14.01,2013-03-23 10:52:00,
2013-03-23 05:57:00,19.0,15.8,30.13,NW,325,0.0,2.0,87,0.00,,CLR,0.00,0.00,VWS V14.01,2013-03-23 10:57:00,
2013-03-23 06:02:00,18.6,15.4,30.13,NW,325,1.0,1.0,87,0.00,,CLR,0.00,0.00,VWS V14.01,2013-03-23 11:02:00,
2013-03-23 06:07:00,18.4,15.2,30.13,NW,325,0.0,1.0,87,0.00,,CLR,0.00,0.00,VWS V14.01,2013-03-23 11:07:00,
2013-03-23 06:12:00,18.3,15.1,30.14,NW,325,0.0,1.0,87,0.00,,CLR,0.00,0.00,VWS V14.01,2013-03-23 11:12:00,
2013-03-23 06:17:00,18.2,15.2,30.14,NW,325,0.0,1.0,88,0.00,,CLR,0.00,0.00,VWS V14.01,2013-03-23 11:17:00,
2013-03-23 06:22:00,18.1,15.1,30.13,NW,325,0.0,1.0,88,0.00,,CLR,0.00,0.00,VWS V14.01,2013-03-23 11:22:00,
2013-03-23 06:27:00,18.0,14.8,30.13,NW,325,0.0,1.0,87,0.00,,CLR,0.00,0.00,VWS V14.01,2013-03-23 11:27:00,
2013-03-23 06:32:00,18.0,15.1,30.14,NW,325,0.0,1.0,88,0.00,,CLR,0.00,0.00,VWS V14.01,2013-03-23 11:32:00,
2013-03-23 06:37:00,17.8,14.9,30.14,NW,325,0.0,1.0,88,0.00,,CLR,0.00,0.00,VWS V14.01,2013-03-23 11:37:00,
2013-03-23 06:42:00,17.5,14.6,30.14,NW,325,0.0,1.0,88,0.00,,CLR,0.00,0.00,VWS V14.01,2013-03-23 11:42:00,
2013-03-23 06:47:00,17.5,14.6,30.14,NW,325,0.0,1.0,88,0.00,,CLR,0.00,0.00,VWS V14.01,2013-03-23 11:47:00,
2013-03-23 06:52:00,17.3,14.4,30.13,NW,325,0.0,1.0,88,0.00,,CLR,0.00,0.00,VWS V14.01,2013-03-23 11:52:00,
2013-03-23 06:57:00,17.5,14.8,30.14,NW,325,0.0,1.0,89,0.00,,CLR,0.00,0.00,VWS V14.01,2013-03-23 11:57:00,
2013-03-23 07:02:00,17.6,14.9,30.14,NW,325,1.0,1.0,89,0.00,,CLR,0.00,0.00,VWS V14.01,2013-03-23 12:02:00,
2013-03-23 07:07:00,17.7,15.0,30.14,NW,325,0.0,2.0,89,0.00,,CLR,0.00,0.00,VWS V14.01,2013-03-23 12:07:00,
2013-03-23 07:12:00,17.7,15.0,30.14,NW,325,0.0,2.0,89,0.00,,CLR,0.00,5.00,VWS V14.01,2013-03-23 12:12:00,
2013-03-23 07:17:00,17.6,14.9,30.14,NW,325,0.0,2.0,89,0.00,,CLR,0.00,7.00,VWS V14.01,2013-03-23 12:17:00,
2013-03-23 07:22:00,17.3,14.4,30.14,NW,325,0.0,2.0,88,0.00,,CLR,0.00,9.00,VWS V14.01,2013-03-23 12:22:00,
2013-03-23 07:27:00,17.2,14.5,30.14,NW,325,0.0,2.0,89,0.00,,CLR,0.00,12.00,VWS V14.01,2013-03-23 12:27:00,
2013-03-23 07:32:00,17.3,14.6,30.14,NW,325,0.0,0.0,89,0.00,,CLR,0.00,16.00,VWS V14.01,2013-03-23 12:32:00,
2013-03-23 07:37:00,17.4,14.7,30.14,NW,325,0.0,1.0,89,0.00,,CLR,0.00,23.00,VWS V14.01,2013-03-23 12:37:00,
2013-03-23 07:42:00,17.4,14.7,30.14,NW,325,0.0,1.0,89,0.00,,CLR,0.00,23.00,VWS V14.01,2013-03-23 12:42:00,
2013-03-23 07:47:00,17.6,14.9,30.14,NW,325,0.0,1.0,89,0.00,,CLR,0.00,25.00,VWS V14.01,2013-03-23 12:47:00,
2013-03-23 07:52:00,17.7,15.0,30.14,NW,325,0.0,1.0,89,0.00,,CLR,0.00,35.00,VWS V14.01,2013-03-23 12:52:00,
2013-03-23 07:57:00,17.8,15.1,30.14,NW,325,0.0,1.0,89,0.00,,CLR,0.00,47.00,VWS V14.01,2013-03-23 12:57:00,
2013-03-23 08:02:00,18.0,15.3,30.14,NW,325,0.0,2.0,89,0.00,,CLR,0.00,54.00,VWS V14.01,2013-03-23 13:02:00,
2013-03-23 08:07:00,18.4,15.7,30.15,NW,325,0.0,2.0,89,0.00,,CLR,0.00,56.00,VWS V14.01,2013-03-23 13:07:00,
2013-03-23 08:12:00,18.8,16.1,30.15,NW,325,0.0,2.0,89,0.00,,CLR,0.00,54.00,VWS V14.01,2013-03-23 13:12:00,
2013-03-23 08:18:00,19.2,16.5,30.14,NW,325,0.0,2.0,89,0.00,,CLR,0.00,58.00,VWS V14.01,2013-03-23 13:18:00,
2013-03-23 08:23:00,19.5,16.8,30.15,NW,325,0.0,2.0,89,0.00,,CLR,0.00,54.00,VWS V14.01,2013-03-23 13:23:00,
2013-03-23 08:28:00,19.9,17.2,30.15,NW,325,0.0,2.0,89,0.00,,CLR,0.00,51.00,VWS V14.01,2013-03-23 13:28:00,
2013-03-23 08:33:00,20.3,17.3,30.15,NW,325,0.0,2.0,88,0.00,,CLR,0.00,42.00,VWS V14.01,2013-03-23 13:33:00,
2013-03-23 08:38:00,20.6,17.4,30.15,NW,325,0.0,2.0,87,0.00,,CLR,0.00,49.00,VWS V14.01,2013-03-23 13:38:00,
2013-03-23 08:43:00,20.8,17.5,30.15,NW,325,0.0,2.0,87,0.00,,CLR,0.00,116.00,VWS V14.01,2013-03-23 13:43:00,
2013-03-23 08:48:00,21.0,17.5,30.15,NW,325,1.0,2.0,86,0.00,,CLR,0.00,51.00,VWS V14.01,2013-03-23 13:48:00,
2013-03-23 08:53:00,21.4,17.9,30.15,NW,325,0.0,2.0,86,0.00,,CLR,0.00,76.00,VWS V14.01,2013-03-23 13:53:00,
2013-03-23 08:58:00,22.1,18.6,30.15,NW,325,0.0,2.0,86,0.00,,CLR,0.00,104.00,VWS V14.01,2013-03-23 13:58:00,
2013-03-23 09:03:00,22.9,19.1,30.15,NNW,339,0.0,3.0,85,0.00,,CLR,0.00,176.00,VWS V14.01,2013-03-23 14:03:00,
2013-03-23 09:08:00,23.7,19.9,30.15,NNW,339,0.0,3.0,85,0.00,,CLR,0.00,160.00,VWS V14.01,2013-03-23 14:08:00,
2013-03-23 09:13:00,24.6,20.2,30.15,NNW,339,1.0,3.0,83,0.00,,CLR,0.00,167.00,VWS V14.01,2013-03-23 14:13:00,
2013-03-23 09:18:00,25.3,20.6,30.15,NNW,339,0.0,3.0,82,0.00,,CLR,0.00,271.00,VWS V14.01,2013-03-23 14:18:00,
2013-03-23 09:23:00,26.0,21.0,30.15,North,5,1.0,3.0,81,0.00,,CLR,0.00,239.00,VWS V14.01,2013-03-23 14:23:00,
2013-03-23 09:28:00,26.6,21.0,30.14,NNE,14,2.0,3.0,79,0.00,,CLR,0.00,248.00,VWS V14.01,2013-03-23 14:28:00,
2013-03-23 09:33:00,27.1,21.2,30.15,NNE,14,2.0,4.0,78,0.00,,CLR,0.00,243.00,VWS V14.01,2013-03-23 14:33:00,
2013-03-23 09:38:00,27.4,21.1,30.14,NNE,26,3.0,4.0,77,0.00,,CLR,0.00,209.00,VWS V14.01,2013-03-23 14:38:00,
2013-03-23 09:43:00,27.5,20.9,30.15,NNE,23,3.0,4.0,76,0.00,,CLR,0.00,209.00,VWS V14.01,2013-03-23 14:43:00,
2013-03-23 09:48:00,27.6,21.0,30.15,NNE,23,0.0,4.0,76,0.00,,CLR,0.00,376.00,VWS V14.01,2013-03-23 14:48:00,
2013-03-23 09:53:00,28.2,21.3,30.15,NNE,23,2.0,4.0,75,0.00,,CLR,0.00,418.00,VWS V14.01,2013-03-23 14:53:00,
2013-03-23 09:58:00,28.7,21.5,30.14,NNE,23,2.0,4.0,74,0.00,,CLR,0.00,499.00,VWS V14.01,2013-03-23 14:58:00,
2013-03-23 10:03:00,29.1,21.5,30.14,NNE,23,2.0,3.0,73,0.00,,CLR,0.00,432.00,VWS V14.01,2013-03-23 15:03:00,
2013-03-23 10:08:00,29.5,21.9,30.14,NNE,24,0.0,3.0,73,0.00,,CLR,0.00,461.00,VWS V14.01,2013-03-23 15:08:00,
2013-03-23 10:13:00,30.0,22.1,30.14,NNE,24,2.0,3.0,72,0.00,,CLR,0.00,394.00,VWS V14.01,2013-03-23 15:13:00,
2013-03-23 10:18:00,30.3,23.7,30.15,NE,36,0.0,5.0,76,0.00,,CLR,0.00,274.00,VWS V14.01,2013-03-23 15:18:00,
2013-03-23 10:23:00,30.6,22.7,30.15,NE,45,2.0,5.0,72,0.00,,CLR,0.00,446.00,VWS V14.01,2013-03-23 15:23:00,
2013-03-23 10:28:00,30.8,21.9,30.15,NNE,18,2.0,5.0,69,0.00,,CLR,0.00,366.00,VWS V14.01,2013-03-23 15:28:00,
2013-03-23 10:33:00,30.8,22.5,30.14,NNE,19,1.0,3.0,71,0.00,,CLR,0.00,445.00,VWS V14.01,2013-03-23 15:33:00,
2013-03-23 10:38:00,30.8,22.5,30.14,ENE,71,2.0,4.0,71,0.00,,CLR,0.00,446.00,VWS V14.01,2013-03-23 15:38:00,
2013-03-23 10:43:00,30.7,22.1,30.13,ENE,57,1.0,4.0,70,0.00,,CLR,0.00,378.00,VWS V14.01,2013-03-23 15:43:00,
2013-03-23 10:48:00,30.7,22.1,30.14,NE,48,1.0,4.0,70,0.00,,CLR,0.00,506.00,VWS V14.01,2013-03-23 15:48:00,
2013-03-23 10:53:00,31.2,22.9,30.13,NE,42,2.0,4.0,71,0.00,,CLR,0.00,455.00,VWS V14.01,2013-03-23 15:53:00,
2013-03-23 10:58:00,31.4,22.4,30.14,NE,53,2.0,4.0,69,0.00,,CLR,0.00,359.00,VWS V14.01,2013-03-23 15:58:00,
2013-03-23 11:03:00,31.6,23.0,30.14,NE,53,0.0,2.0,70,0.00,,CLR,0.00,415.00,VWS V14.01,2013-03-23 16:03:00,
2013-03-23 11:08:00,32.0,23.3,30.14,NE,53,1.0,2.0,70,0.00,,CLR,0.00,531.00,VWS V14.01,2013-03-23 16:08:00,
2013-03-23 11:13:00,32.6,23.2,30.14,ENE,58,1.0,2.0,68,0.00,,CLR,0.00,524.00,VWS V14.01,2013-03-23 16:13:00,
2013-03-23 11:18:00,33.0,23.2,30.14,NNE,20,2.0,5.0,67,0.00,,CLR,0.00,529.00,VWS V14.01,2013-03-23 16:18:00,
2013-03-23 11:23:00,33.3,23.5,30.14,NNE,24,1.0,5.0,67,0.00,,CLR,0.00,494.00,VWS V14.01,2013-03-23 16:23:00,
2013-03-23 11:29:00,33.5,23.4,30.14,North,5,2.0,5.0,66,0.00,,CLR,0.00,490.00,VWS V14.01,2013-03-23 16:29:00,
2013-03-23 11:34:00,33.9,23.4,30.14,NE,36,1.0,2.0,65,0.00,,CLR,0.00,485.00,VWS V14.01,2013-03-23 16:34:00,
2013-03-23 11:39:00,34.0,23.5,30.14,North,360,3.0,4.0,65,0.00,,CLR,0.00,526.00,VWS V14.01,2013-03-23 16:39:00,
2013-03-23 11:44:00,34.3,24.1,30.13,NNE,33,0.0,4.0,66,0.00,,CLR,0.00,563.00,VWS V14.01,2013-03-23 16:44:00,
2013-03-23 11:49:00,34.6,24.1,30.13,NNE,28,2.0,4.0,65,0.00,,CLR,0.00,605.00,VWS V14.01,2013-03-23 16:49:00,
2013-03-23 11:54:00,34.8,23.9,30.13,NE,42,2.0,4.0,64,0.00,,CLR,0.00,582.00,VWS V14.01,2013-03-23 16:54:00,
2013-03-23 11:59:00,34.7,23.4,30.13,ENE,76,0.0,4.0,63,0.00,,CLR,0.00,492.00,VWS V14.01,2013-03-23 16:59:00,
2013-03-23 12:04:00,35.0,23.7,30.13,NW,311,1.0,3.0,63,0.00,,CLR,0.00,490.00,VWS V14.01,2013-03-23 17:04:00,
2013-03-23 12:09:00,35.1,23.4,30.13,East,101,2.0,3.0,62,0.00,,CLR,0.00,536.00,VWS V14.01,2013-03-23 17:09:00,
2013-03-23 12:14:00,35.1,23.4,30.13,ESE,118,0.0,5.0,62,0.00,,CLR,0.00,564.00,VWS V14.01,2013-03-23 17:14:00,
2013-03-23 12:19:00,35.3,22.8,30.13,SE,132,0.0,5.0,60,0.00,,CLR,0.00,679.00,VWS V14.01,2013-03-23 17:19:00,
2013-03-23 12:24:00,35.1,23.8,30.13,NE,44,1.0,5.0,63,0.00,,CLR,0.00,605.00,VWS V14.01,2013-03-23 17:24:00,
2013-03-23 12:29:00,35.0,23.3,30.13,West,278,0.0,5.0,62,0.00,,CLR,0.00,687.00,VWS V14.01,2013-03-23 17:29:00,
2013-03-23 12:34:00,35.5,23.4,30.13,South,169,0.0,2.0,61,0.00,,CLR,0.00,749.00,VWS V14.01,2013-03-23 17:34:00,
2013-03-23 12:39:00,35.7,23.6,30.13,South,189,1.0,2.0,61,0.00,,CLR,0.00,791.00,VWS V14.01,2013-03-23 17:39:00,
2013-03-23 12:44:00,36.5,24.0,30.13,NNW,340,1.0,2.0,60,0.00,,CLR,0.00,759.00,VWS V14.01,2013-03-23 17:44:00,
2013-03-23 12:49:00,37.0,24.0,30.13,North,360,0.0,2.0,59,0.00,,CLR,0.00,747.00,VWS V14.01,2013-03-23 17:49:00,
2013-03-23 12:54:00,37.1,23.7,30.13,NE,40,0.0,5.0,58,0.00,,CLR,0.00,756.00,VWS V14.01,2013-03-23 17:54:00,
2013-03-23 12:59:00,37.5,24.1,30.12,NE,40,2.0,5.0,58,0.00,,CLR,0.00,795.00,VWS V14.01,2013-03-23 17:59:00,
2013-03-23 13:04:00,37.7,23.9,30.12,NNE,27,0.0,3.0,57,0.00,,CLR,0.00,807.00,VWS V14.01,2013-03-23 18:04:00,
2013-03-23 13:09:00,37.8,23.5,30.12,North,5,0.0,4.0,56,0.00,,CLR,0.00,780.00,VWS V14.01,2013-03-23 18:09:00,
2013-03-23 13:14:00,38.0,24.5,30.12,NW,321,1.0,4.0,58,0.00,,CLR,0.00,798.00,VWS V14.01,2013-03-23 18:14:00,
2013-03-23 13:19:00,38.3,23.6,30.12,NNW,340,1.0,4.0,55,0.00,,CLR,0.00,821.00,VWS V14.01,2013-03-23 18:19:00,
2013-03-23 13:24:00,38.5,23.3,30.11,NNE,16,3.0,8.0,54,0.00,,CLR,0.00,837.00,VWS V14.01,2013-03-23 18:24:00,
2013-03-23 13:29:00,38.3,22.7,30.11,NNE,16,1.0,9.0,53,0.00,,CLR,0.00,772.00,VWS V14.01,2013-03-23 18:29:00,
2013-03-23 13:34:00,38.3,22.7,30.12,NNW,327,6.0,8.0,53,0.00,,CLR,0.00,777.00,VWS V14.01,2013-03-23 18:34:00,
2013-03-23 13:39:00,37.5,22.8,30.12,NNW,333,6.0,10.0,55,0.00,,CLR,0.00,689.00,VWS V14.01,2013-03-23 18:39:00,
2013-03-23 13:44:00,37.3,22.6,30.12,NNW,347,3.0,10.0,55,0.00,,CLR,0.00,819.00,VWS V14.01,2013-03-23 18:44:00,
2013-03-23 13:49:00,37.1,22.9,30.12,NW,324,4.0,10.0,56,0.00,,CLR,0.00,807.00,VWS V14.01,2013-03-23 18:49:00,
2013-03-23 13:54:00,37.4,22.7,30.11,NW,325,1.0,10.0,55,0.00,,CLR,0.00,824.00,VWS V14.01,2013-03-23 18:54:00,
2013-03-23 13:59:00,37.9,23.6,30.11,NNW,347,5.0,10.0,56,0.00,,CLR,0.00,779.00,VWS V14.01,2013-03-23 18:59:00,
2013-03-23 14:04:00,38.0,24.5,30.12,NW,326,1.0,5.0,58,0.00,,CLR,0.00,821.00,VWS V14.01,2013-03-23 19:04:00,
2013-03-23 14:09:00,37.8,22.7,30.11,SW,234,1.0,8.0,54,0.00,,CLR,0.00,881.00,VWS V14.01,2013-03-23 19:09:00,
2013-03-23 14:14:00,38.2,23.0,30.11,WSW,240,1.0,8.0,54,0.00,,CLR,0.00,761.00,VWS V14.01,2013-03-23 19:14:00,
2013-03-23 14:19:00,38.0,23.3,30.11,NNE,15,3.0,8.0,55,0.00,,CLR,0.00,359.00,VWS V14.01,2013-03-23 19:19:00,
2013-03-23 14:24:00,38.1,22.5,30.10,North,5,4.0,8.0,53,0.00,,CLR,0.00,684.00,VWS V14.01,2013-03-23 19:24:00,
2013-03-23 14:29:00,38.3,23.1,30.10,North,360,4.0,8.0,54,0.00,,CLR,0.00,647.00,VWS V14.01,2013-03-23 19:29:00,
2013-03-23 14:34:00,38.3,23.1,30.10,NNW,348,2.0,8.0,54,0.00,,CLR,0.00,612.00,VWS V14.01,2013-03-23 19:34:00,
2013-03-23 14:39:00,38.0,24.1,30.10,North,355,3.0,8.0,57,0.00,,CLR,0.00,675.00,VWS V14.01,2013-03-23 19:39:00,
2013-03-23 14:44:00,38.1,22.5,30.10,NNW,343,4.0,8.0,53,0.00,,CLR,0.00,691.00,VWS V14.01,2013-03-23 19:44:00,
2013-03-23 14:50:00,38.0,22.9,30.10,NW,306,5.0,9.0,54,0.00,,CLR,0.00,696.00,VWS V14.01,2013-03-23 19:50:00,
2013-03-23 14:55:00,38.0,23.3,30.10,East,82,2.0,9.0,55,0.00,,CLR,0.00,631.00,VWS V14.01,2013-03-23 19:55:00,
2013-03-23 15:00:00,38.2,23.5,30.10,NW,313,2.0,9.0,55,0.00,,CLR,0.00,626.00,VWS V14.01,2013-03-23 20:00:00,
2013-03-23 15:05:00,38.3,24.0,30.10,NNE,32,2.0,3.0,56,0.00,,CLR,0.00,689.00,VWS V14.01,2013-03-23 20:05:00,
2013-03-23 15:10:00,38.5,23.3,30.09,NE,40,0.0,5.0,54,0.00,,CLR,0.00,698.00,VWS V14.01,2013-03-23 20:10:00,
2013-03-23 15:15:00,38.7,23.5,30.09,NNW,342,4.0,7.0,54,0.00,,CLR,0.00,694.00,VWS V14.01,2013-03-23 20:15:00,
2013-03-23 15:20:00,38.3,22.7,30.09,North,5,5.0,10.0,53,0.00,,CLR,0.00,654.00,VWS V14.01,2013-03-23 20:20:00,
2013-03-23 15:25:00,37.9,23.2,30.08,NNE,25,1.0,10.0,55,0.00,,CLR,0.00,682.00,VWS V14.01,2013-03-23 20:25:00,
2013-03-23 15:30:00,38.4,23.2,30.08,NNE,25,1.0,3.0,54,0.00,,CLR,0.00,640.00,VWS V14.01,2013-03-23 20:30:00,
2013-03-23 15:35:00,38.8,22.7,30.08,North,350,0.0,4.0,52,0.00,,CLR,0.00,573.00,VWS V14.01,2013-03-23 20:35:00,
2013-03-23 15:40:00,39.0,23.8,30.09,North,350,1.0,4.0,54,0.00,,CLR,0.00,622.00,VWS V14.01,2013-03-23 20:40:00,
2013-03-23 15:45:00,39.3,23.6,30.08,NW,315,3.0,4.0,53,0.00,,CLR,0.00,612.00,VWS V14.01,2013-03-23 20:45:00,
2013-03-23 15:50:00,39.1,22.5,30.08,NNW,329,0.0,5.0,51,0.00,,CLR,0.00,610.00,VWS V14.01,2013-03-23 20:50:00,
2013-03-23 15:55:00,39.0,24.2,30.08,NNW,345,5.0,5.0,55,0.00,,CLR,0.00,603.00,VWS V14.01,2013-03-23 20:55:00,
2013-03-23 16:00:00,39.2,24.8,30.08,ENE,68,3.0,5.0,56,0.00,,CLR,0.00,550.00,VWS V14.01,2013-03-23 21:00:00,
2013-03-23 16:05:00,38.9,22.8,30.08,NNE,24,0.0,5.0,52,0.00,,CLR,0.00,457.00,VWS V14.01,2013-03-23 21:05:00,
2013-03-23 16:10:00,38.9,24.6,30.08,North,11,1.0,5.0,56,0.00,,CLR,0.00,490.00,VWS V14.01,2013-03-23 21:10:00,
2013-03-23 16:15:00,39.2,23.5,30.08,North,5,2.0,5.0,53,0.00,,CLR,0.00,540.00,VWS V14.01,2013-03-23 21:15:00,
2013-03-23 16:20:00,39.4,24.6,30.08,North,360,0.0,5.0,55,0.00,,CLR,0.00,513.00,VWS V14.01,2013-03-23 21:20:00,
2013-03-23 16:25:00,39.6,24.8,30.08,NE,53,2.0,5.0,55,0.00,,CLR,0.00,520.00,VWS V14.01,2013-03-23 21:25:00,
2013-03-23 16:30:00,39.5,23.8,30.08,NNE,22,1.0,2.0,53,0.00,,CLR,0.00,508.00,VWS V14.01,2013-03-23 21:30:00,
2013-03-23 16:35:00,39.7,23.5,30.08,NNE,22,0.0,2.0,52,0.00,,CLR,0.00,494.00,VWS V14.01,2013-03-23 21:35:00,
2013-03-23 16:40:00,39.9,23.7,30.08,NNW,331,0.0,3.0,52,0.00,,CLR,0.00,469.00,VWS V14.01,2013-03-23 21:40:00,
2013-03-23 16:45:00,40.0,23.4,30.08,North,350,0.0,3.0,51,0.00,,CLR,0.00,454.00,VWS V14.01,2013-03-23 21:45:00,
2013-03-23 16:50:00,39.7,23.1,30.08,NW,325,2.0,6.0,51,0.00,,CLR,0.00,448.00,VWS V14.01,2013-03-23 21:50:00,
2013-03-23 16:55:00,39.5,23.8,30.08,NW,325,0.0,6.0,53,0.00,,CLR,0.00,415.00,VWS V14.01,2013-03-23 21:55:00,
2013-03-23 17:00:00,40.0,24.3,30.07,North,355,4.0,4.0,53,0.00,,CLR,0.00,369.00,VWS V14.01,2013-03-23 22:00:00,
2013-03-23 17:05:00,40.0,23.4,30.07,WNW,292,3.0,4.0,51,0.00,,CLR,0.00,348.00,VWS V14.01,2013-03-23 22:05:00,
2013-03-23 17:10:00,39.5,24.7,30.07,NW,315,1.0,6.0,55,0.00,,CLR,0.00,325.00,VWS V14.01,2013-03-23 22:10:00,
2013-03-23 17:15:00,39.5,23.8,30.07,NNW,333,1.0,6.0,53,0.00,,CLR,0.00,234.00,VWS V14.01,2013-03-23 22:15:00,
2013-03-23 17:20:00,39.1,23.0,30.07,NW,320,0.0,6.0,52,0.00,,CLR,0.00,244.00,VWS V14.01,2013-03-23 22:20:00,
2013-03-23 17:25:00,38.7,22.6,30.07,NW,324,0.0,6.0,52,0.00,,CLR,0.00,200.00,VWS V14.01,2013-03-23 22:25:00,
2013-03-23 17:30:00,38.4,23.2,30.07,NW,324,0.0,2.0,54,0.00,,CLR,0.00,146.00,VWS V14.01,2013-03-23 22:30:00,
2013-03-23 17:35:00,38.2,23.0,30.07,NW,324,1.0,2.0,54,0.00,,CLR,0.00,128.00,VWS V14.01,2013-03-23 22:35:00,
2013-03-23 17:40:00,37.9,23.2,30.07,NW,324,1.0,3.0,55,0.00,,CLR,0.00,118.00,VWS V14.01,2013-03-23 22:40:00,
2013-03-23 17:45:00,37.8,23.5,30.07,NW,325,2.0,3.0,56,0.00,,CLR,0.00,107.00,VWS V14.01,2013-03-23 22:45:00,
2013-03-23 17:50:00,37.5,22.8,30.07,NNW,337,0.0,4.0,55,0.00,,CLR,0.00,100.00,VWS V14.01,2013-03-23 22:50:00,
2013-03-23 17:55:00,37.5,24.1,30.07,NNW,337,0.0,4.0,58,0.00,,CLR,0.00,95.00,VWS V14.01,2013-03-23 22:55:00,
2013-03-23 18:00:00,37.3,23.9,30.07,NNW,337,0.0,0.0,58,0.00,,CLR,0.00,86.00,VWS V14.01,2013-03-23 23:00:00,
2013-03-23 18:05:00,37.2,23.8,30.07,NNW,337,0.0,2.0,58,0.00,,CLR,0.00,79.00,VWS V14.01,2013-03-23 23:05:00,
2013-03-23 18:10:00,37.1,23.3,30.07,NNW,337,0.0,2.0,57,0.00,,CLR,0.00,74.00,VWS V14.01,2013-03-23 23:10:00,
2013-03-23 18:15:00,37.1,23.3,30.07,NNW,337,0.0,2.0,57,0.00,,CLR,0.00,69.00,VWS V14.01,2013-03-23 23:15:00,
2013-03-23 18:20:00,37.0,23.2,30.07,NNW,337,0.0,2.0,57,0.00,,CLR,0.00,65.00,VWS V14.01,2013-03-23 23:20:00,
2013-03-23 18:25:00,36.9,23.9,30.07,NNW,337,0.0,2.0,59,0.00,,CLR,0.00,60.00,VWS V14.01,2013-03-23 23:25:00,
2013-03-23 18:30:00,36.9,23.5,30.07,NNW,337,0.0,0.0,58,0.00,,CLR,0.00,58.00,VWS V14.01,2013-03-23 23:30:00,
2013-03-23 18:35:00,36.9,23.9,30.07,NNW,337,1.0,2.0,59,0.00,,CLR,0.00,56.00,VWS V14.01,2013-03-23 23:35:00,
2013-03-23 18:40:00,36.3,23.8,30.08,West,275,2.0,3.0,60,0.00,,CLR,0.00,49.00,VWS V14.01,2013-03-23 23:40:00,
2013-03-23 18:45:00,35.9,23.8,30.08,West,276,3.0,3.0,61,0.00,,CLR,0.00,46.00,VWS V14.01,2013-03-23 23:45:00,
2013-03-23 18:50:00,35.6,23.9,30.08,West,277,3.0,4.0,62,0.00,,CLR,0.00,51.00,VWS V14.01,2013-03-23 23:50:00,
2013-03-23 18:55:00,35.5,23.8,30.08,West,278,2.0,5.0,62,0.00,,CLR,0.00,46.00,VWS V14.01,2013-03-23 23:55:00,
2013-03-23 19:00:00,35.4,23.7,30.08,West,279,3.0,4.0,62,0.00,,CLR,0.00,37.00,VWS V14.01,2013-03-24 00:00:00,
2013-03-23 19:05:00,35.3,23.6,30.08,NW,307,4.0,8.0,62,0.00,,CLR,0.00,26.00,VWS V14.01,2013-03-24 00:05:00,
2013-03-23 19:11:00,35.3,23.6,30.09,NW,307,4.0,8.0,62,0.00,,CLR,0.00,16.00,VWS V14.01,2013-03-24 00:11:00,
2013-03-23 19:16:00,35.2,23.5,30.09,WNW,289,3.0,8.0,62,0.00,,CLR,0.00,9.00,VWS V14.01,2013-03-24 00:16:00,
2013-03-23 19:21:00,35.1,23.8,30.09,NW,306,4.0,8.0,63,0.00,,CLR,0.00,0.00,VWS V14.01,2013-03-24 00:21:00,
2013-03-23 19:26:00,35.0,23.7,30.09,NW,314,2.0,8.0,63,0.00,,CLR,0.00,0.00,VWS V14.01,2013-03-24 00:26:00,
2013-03-23 19:31:00,34.8,23.9,30.09,NW,311,3.0,4.0,64,0.00,,CLR,0.00,0.00,VWS V14.01,2013-03-24 00:31:00,
2013-03-23 19:36:00,34.8,23.5,30.09,NW,318,3.0,5.0,63,0.00,,CLR,0.00,0.00,VWS V14.01,2013-03-24 00:36:00,
2013-03-23 19:41:00,34.8,23.5,30.09,NW,320,2.0,5.0,63,0.00,,CLR,0.00,0.00,VWS V14.01,2013-03-24 00:41:00,
2013-03-23 19:46:00,34.7,23.8,30.09,NNW,327,2.0,5.0,64,0.00,,CLR,0.00,0.00,VWS V14.01,2013-03-24 00:46:00,
2013-03-23 19:51:00,34.6,23.7,30.09,NNW,327,3.0,5.0,64,0.00,,CLR,0.00,0.00,VWS V14.01,2013-03-24 00:51:00,
2013-03-23 19:56:00,34.5,24.0,30.09,NNW,327,1.0,5.0,65,0.00,,CLR,0.00,0.00,VWS V14.01,2013-03-24 00:56:00,
2013-03-23 20:01:00,34.4,23.9,30.09,NNW,335,1.0,2.0,65,0.00,,CLR,0.00,0.00,VWS V14.01,2013-03-24 01:01:00,
2013-03-23 20:06:00,34.4,23.9,30.09,NNW,335,2.0,3.0,65,0.00,,CLR,0.00,0.00,VWS V14.01,2013-03-24 01:06:00,
2013-03-23 20:11:00,34.3,23.8,30.09,NW,316,0.0,4.0,65,0.00,,CLR,0.00,0.00,VWS V14.01,2013-03-24 01:11:00,
2013-03-23 20:16:00,34.3,23.8,30.09,NNW,338,2.0,4.0,65,0.00,,CLR,0.00,0.00,VWS V14.01,2013-03-24 01:16:00,
2013-03-23 20:21:00,34.2,23.3,30.09,North,355,1.0,4.0,64,0.00,,CLR,0.00,0.00,VWS V14.01,2013-03-24 01:21:00,
2013-03-23 20:26:00,34.2,23.7,30.09,NNE,13,0.0,4.0,65,0.00,,CLR,0.00,0.00,VWS V14.01,2013-03-24 01:26:00,
2013-03-23 20:31:00,34.2,23.7,30.09,North,355,0.0,4.0,65,0.00,,CLR,0.00,0.00,VWS V14.01,2013-03-24 01:31:00,
2013-03-23 20:36:00,34.2,23.3,30.10,North,355,2.0,4.0,64,0.00,,CLR,0.00,0.00,VWS V14.01,2013-03-24 01:36:00,
2013-03-23 20:41:00,34.3,23.8,30.10,NNE,19,2.0,4.0,65,0.00,,CLR,0.00,0.00,VWS V14.01,2013-03-24 01:41:00,
2013-03-23 20:46:00,34.3,23.8,30.10,NNE,19,2.0,4.0,65,0.00,,CLR,0.00,0.00,VWS V14.01,2013-03-24 01:46:00,
2013-03-23 20:51:00,34.3,23.8,30.10,NNE,15,0.0,5.0,65,0.00,,CLR,0.00,0.00,VWS V14.01,2013-03-24 01:51:00,
2013-03-23 20:56:00,34.2,23.7,30.10,North,350,1.0,5.0,65,0.00,,CLR,0.00,0.00,VWS V14.01,2013-03-24 01:56:00,
2013-03-23 21:01:00,34.1,24.0,30.10,NNE,14,1.0,3.0,66,0.00,,BKN044,0.00,0.00,VWS V14.01,2013-03-24 02:01:00,
2013-03-23 21:06:00,34.0,23.9,30.10,North,5,0.0,4.0,66,0.00,,BKN044,0.00,0.00,VWS V14.01,2013-03-24 02:06:00,
2013-03-23 21:11:00,33.9,24.1,30.10,North,5,3.0,4.0,67,0.00,,BKN044,0.00,0.00,VWS V14.01,2013-03-24 02:11:00,
2013-03-23 21:16:00,33.8,23.7,30.10,NNE,28,1.0,4.0,66,0.00,,BKN044,0.00,0.00,VWS V14.01,2013-03-24 02:16:00,
2013-03-23 21:21:00,33.7,23.9,30.10,NNE,20,2.0,4.0,67,0.00,,BKN044,0.00,0.00,VWS V14.01,2013-03-24 02:21:00,
2013-03-23 21:27:00,33.6,24.2,30.10,NNE,20,2.0,4.0,68,0.00,,BKN044,0.00,0.00,VWS V14.01,2013-03-24 02:27:00,
2013-03-23 21:32:00,33.5,24.1,30.10,NNE,20,0.0,1.0,68,0.00,,BKN044,0.00,0.00,VWS V14.01,2013-03-24 02:32:00,
2013-03-23 21:37:00,33.3,23.9,30.10,NNE,20,1.0,3.0,68,0.00,,BKN044,0.00,0.00,VWS V14.01,2013-03-24 02:37:00,
2013-03-23 21:42:00,33.2,23.8,30.10,NNE,20,1.0,3.0,68,0.00,,BKN044,0.00,0.00,VWS V14.01,2013-03-24 02:42:00,
2013-03-23 21:47:00,33.1,24.0,30.10,NNE,20,2.0,3.0,69,0.00,,BKN044,0.00,0.00,VWS V14.01,2013-03-24 02:47:00,
2013-03-23 21:52:00,33.0,24.3,30.10,NNE,20,0.0,3.0,70,0.00,,BKN044,0.00,0.00,VWS V14.01,2013-03-24 02:52:00,
2013-03-23 21:57:00,32.8,24.1,30.11,NNE,20,1.0,3.0,70,0.00,,BKN044,0.00,0.00,VWS V14.01,2013-03-24 02:57:00,
2013-03-23 22:02:00,32.8,24.5,30.11,NNE,20,0.0,1.0,71,0.00,,OVC046,0.00,0.00,VWS V14.01,2013-03-24 03:02:00,
2013-03-23 22:07:00,32.7,24.0,30.11,NNE,20,1.0,2.0,70,0.00,,OVC046,0.00,0.00,VWS V14.01,2013-03-24 03:07:00,
2013-03-23 22:12:00,32.7,24.0,30.11,NNE,20,0.0,2.0,70,0.00,,OVC046,0.00,0.00,VWS V14.01,2013-03-24 03:12:00,
2013-03-23 22:17:00,32.7,24.0,30.10,NE,35,1.0,2.0,70,0.00,,OVC046,0.00,0.00,VWS V14.01,2013-03-24 03:17:00,
2013-03-23 22:22:00,32.6,24.2,30.11,NE,35,1.0,3.0,71,0.00,,OVC046,0.00,0.00,VWS V14.01,2013-03-24 03:22:00,
2013-03-23 22:27:00,32.5,24.5,30.11,NE,35,0.0,3.0,72,0.00,,OVC046,0.00,0.00,VWS V14.01,2013-03-24 03:27:00,
2013-03-23 22:32:00,32.4,24.4,30.11,NE,35,0.0,2.0,72,0.00,,OVC046,0.00,0.00,VWS V14.01,2013-03-24 03:32:00,
2013-03-23 22:37:00,32.3,24.3,30.11,NE,35,0.0,2.0,72,0.00,,OVC046,0.00,0.00,VWS V14.01,2013-03-24 03:37:00,
2013-03-23 22:42:00,32.2,24.2,30.11,NE,35,1.0,2.0,72,0.00,,OVC046,0.00,0.00,VWS V14.01,2013-03-24 03:42:00,
2013-03-23 22:47:00,32.2,24.2,30.11,NE,35,1.0,3.0,72,0.00,,OVC046,0.00,0.00,VWS V14.01,2013-03-24 03:47:00,
2013-03-23 22:52:00,32.1,24.1,30.11,NE,35,0.0,3.0,72,0.00,,OVC046,0.00,0.00,VWS V14.01,2013-03-24 03:52:00,
2013-03-23 22:58:00,32.0,24.0,30.11,North,5,1.0,5.0,72,0.00,,OVC046,0.00,0.00,VWS V14.01,2013-03-24 03:58:00,
2013-03-23 23:00:00,32.0,24.0,30.11,NNE,27,1.0,3.0,72,0.00,,OVC046,0.00,0.00,VWS V14.01,2013-03-24 04:00:00,
2013-03-23 23:05:00,32.0,24.0,30.11,NNE,29,1.0,3.0,72,0.00,,OVC046,0.00,0.00,VWS V14.01,2013-03-24 04:05:00,
2013-03-23 23:10:00,32.0,24.0,30.11,NNE,29,0.0,3.0,72,0.00,,OVC046,0.00,0.00,VWS V14.01,2013-03-24 04:10:00,
2013-03-23 23:15:00,31.9,23.9,30.11,NNW,333,2.0,3.0,72,0.00,,OVC046,0.00,0.00,VWS V14.01,2013-03-24 04:15:00,
2013-03-23 23:20:00,31.8,23.8,30.10,NNW,333,0.0,3.0,72,0.00,,OVC046,0.00,0.00,VWS V14.01,2013-03-24 04:20:00,
2013-03-23 23:25:00,31.7,23.7,30.10,NNW,333,0.0,3.0,72,0.00,,OVC046,0.00,0.00,VWS V14.01,2013-03-24 04:25:00,
2013-03-23 23:30:00,31.7,24.0,30.10,NNW,333,1.0,1.0,73,0.00,,OVC046,0.00,0.00,VWS V14.01,2013-03-24 04:30:00,
2013-03-23 23:35:00,31.6,24.0,30.10,NNW,333,0.0,2.0,73,0.00,,OVC046,0.00,0.00,VWS V14.01,2013-03-24 04:35:00,
2013-03-23 23:40:00,31.5,23.9,30.10,NNW,333,1.0,2.0,73,0.00,,OVC046,0.00,0.00,VWS V14.01,2013-03-24 04:40:00,
2013-03-23 23:45:00,31.5,23.9,30.10,NNW,333,0.0,2.0,73,0.00,,OVC046,0.00,0.00,VWS V14.01,2013-03-24 04:45:00,
2013-03-23 23:50:00,31.4,24.1,30.10,NNW,333,1.0,2.0,74,0.00,,OVC046,0.00,0.00,VWS V14.01,2013-03-24 04:50:00,
2013-03-23 23:55:00,31.4,24.1,30.10,NNW,333,0.0,2.0,74,0.00,,OVC046,0.00,0.00,VWS V14.01,2013-03-24 04:55:00,